createdAt,value
2017-12-31T00:00:55.484Z,10.80
2017-12-31T00:03:23.042Z,10.90
2017-12-31T00:05:50.570Z,10.90
2017-12-31T00:08:18.130Z,10.90
2017-12-31T00:10:45.655Z,11.00
2017-12-31T00:13:13.195Z,11.00
2017-12-31T00:15:41.538Z,10.90
2017-12-31T00:18:09.076Z,10.90
2017-12-31T00:20:36.633Z,11.00
2017-12-31T00:23:04.170Z,11.00
2017-12-31T00:25:31.729Z,11.00
2017-12-31T00:27:59.262Z,11.00
2017-12-31T00:30:26.826Z,11.00
2017-12-31T00:32:55.138Z,10.90
2017-12-31T00:35:22.702Z,10.90
2017-12-31T00:37:50.242Z,10.90
2017-12-31T00:40:17.810Z,11.00
2017-12-31T00:42:45.350Z,11.00
2017-12-31T00:45:13.682Z,11.00
2017-12-31T00:47:41.219Z,10.90
2017-12-31T00:50:08.793Z,11.00
2017-12-31T00:52:36.321Z,11.00
2017-12-31T00:55:03.882Z,11.00
2017-12-31T00:57:31.409Z,11.00
2017-12-31T00:59:58.971Z,11.00
2017-12-31T01:02:26.498Z,11.00
2017-12-31T01:04:54.119Z,11.10
2017-12-31T01:07:21.649Z,11.00
2017-12-31T01:09:49.215Z,11.00
2017-12-31T01:12:16.756Z,11.00
2017-12-31T01:14:44.322Z,11.00
2017-12-31T01:17:11.855Z,10.90
2017-12-31T01:19:39.415Z,10.90
2017-12-31T01:22:06.945Z,10.80
2017-12-31T01:24:34.473Z,10.80
2017-12-31T01:27:02.797Z,10.80
2017-12-31T01:29:30.371Z,10.80
2017-12-31T01:31:57.962Z,10.70
2017-12-31T01:34:25.504Z,10.70
2017-12-31T01:36:53.058Z,10.70
2017-12-31T01:39:20.603Z,10.70
2017-12-31T01:41:48.199Z,10.70
2017-12-31T01:44:15.731Z,10.70
2017-12-31T01:46:43.292Z,10.70
2017-12-31T01:49:10.858Z,10.70
2017-12-31T01:51:38.415Z,10.70
2017-12-31T01:54:05.991Z,10.70
2017-12-31T01:56:33.510Z,10.70
2017-12-31T01:59:01.055Z,10.80
2017-12-31T02:01:28.659Z,10.70
2017-12-31T02:03:56.223Z,10.70
2017-12-31T02:06:23.797Z,10.70
2017-12-31T02:08:51.337Z,10.80
2017-12-31T02:11:19.002Z,10.80
2017-12-31T02:13:46.518Z,10.80
2017-12-31T02:16:14.086Z,10.80
2017-12-31T02:18:41.642Z,10.80
2017-12-31T02:21:09.206Z,10.80
2017-12-31T02:23:36.740Z,10.90
2017-12-31T02:26:05.042Z,10.90
2017-12-31T02:28:32.615Z,10.80
2017-12-31T02:31:00.189Z,10.80
2017-12-31T02:33:27.786Z,10.80
2017-12-31T02:35:55.353Z,10.80
2017-12-31T02:38:23.697Z,10.80
2017-12-31T02:40:51.254Z,10.80
2017-12-31T02:43:18.805Z,10.80
2017-12-31T02:45:46.353Z,10.90
2017-12-31T02:48:13.917Z,10.90
2017-12-31T02:50:41.458Z,10.90
2017-12-31T02:53:09.014Z,10.90
2017-12-31T02:55:36.550Z,11.00
2017-12-31T02:58:04.882Z,10.90
2017-12-31T03:00:32.421Z,10.90
2017-12-31T03:02:59.990Z,10.80
2017-12-31T03:05:27.526Z,10.80
2017-12-31T03:07:55.082Z,10.90
2017-12-31T03:10:22.609Z,10.80
2017-12-31T03:12:50.157Z,10.80
2017-12-31T03:15:17.705Z,10.80
2017-12-31T03:17:45.273Z,10.80
2017-12-31T03:20:12.809Z,10.90
2017-12-31T03:22:40.384Z,10.90
2017-12-31T03:25:07.919Z,10.90
2017-12-31T03:27:35.486Z,10.90
2017-12-31T03:30:03.045Z,10.90
2017-12-31T03:32:30.581Z,10.90
2017-12-31T03:34:58.157Z,10.90
2017-12-31T03:37:25.703Z,10.90
2017-12-31T03:39:53.258Z,10.90
2017-12-31T03:42:20.793Z,10.90
2017-12-31T03:44:48.350Z,10.90
2017-12-31T03:47:15.890Z,10.90
2017-12-31T03:49:43.453Z,10.90
2017-12-31T03:52:10.985Z,10.90
2017-12-31T03:54:38.547Z,10.90
2017-12-31T03:57:06.078Z,11.00
2017-12-31T03:59:33.634Z,11.00
2017-12-31T04:02:01.955Z,11.00
2017-12-31T04:04:29.511Z,11.00
2017-12-31T04:06:57.037Z,10.90
2017-12-31T04:09:24.597Z,11.00
2017-12-31T04:11:52.128Z,11.00
2017-12-31T04:14:19.693Z,10.90
2017-12-31T04:16:47.994Z,11.00
2017-12-31T04:19:15.526Z,11.00
2017-12-31T04:21:43.082Z,11.00
2017-12-31T04:24:10.630Z,11.00
2017-12-31T04:26:38.186Z,11.00
2017-12-31T04:29:05.714Z,11.00
2017-12-31T04:31:33.266Z,11.00
2017-12-31T04:34:00.799Z,11.00
2017-12-31T04:36:29.122Z,11.00
2017-12-31T04:38:56.657Z,11.00
2017-12-31T04:41:24.276Z,11.00
2017-12-31T04:43:51.820Z,10.90
2017-12-31T04:46:19.388Z,10.90
2017-12-31T04:48:46.923Z,11.00
2017-12-31T04:51:14.471Z,10.90
2017-12-31T04:53:42.011Z,10.90
2017-12-31T04:56:09.565Z,10.90
2017-12-31T04:58:37.100Z,10.90
2017-12-31T05:01:04.659Z,10.90
2017-12-31T05:03:32.962Z,10.90
2017-12-31T05:06:00.522Z,10.80
2017-12-31T05:08:28.050Z,10.90
2017-12-31T05:10:55.602Z,10.80
2017-12-31T05:13:23.133Z,10.90
2017-12-31T05:15:50.695Z,10.90
2017-12-31T05:18:18.222Z,10.80
2017-12-31T05:20:45.774Z,10.90
2017-12-31T05:23:13.301Z,10.90
2017-12-31T05:25:40.849Z,11.00
2017-12-31T05:28:08.378Z,10.80
2017-12-31T05:30:35.932Z,10.70
2017-12-31T05:33:03.474Z,10.70
2017-12-31T05:35:31.030Z,10.60
2017-12-31T05:37:59.329Z,10.60
2017-12-31T05:40:26.873Z,10.50
2017-12-31T05:42:54.401Z,10.50
2017-12-31T05:45:21.971Z,10.50
2017-12-31T05:47:50.274Z,10.50
2017-12-31T05:50:17.832Z,10.50
2017-12-31T05:52:45.361Z,10.60
2017-12-31T05:55:12.918Z,10.50
2017-12-31T05:57:40.450Z,10.50
2017-12-31T06:00:08.005Z,10.50
2017-12-31T06:02:35.535Z,10.50
2017-12-31T06:05:03.062Z,10.40
2017-12-31T06:07:31.394Z,10.30
2017-12-31T06:09:58.935Z,10.30
2017-12-31T06:12:26.494Z,10.30
2017-12-31T06:14:54.030Z,10.30
2017-12-31T06:17:22.355Z,10.20
2017-12-31T06:19:49.894Z,10.20
2017-12-31T06:22:17.448Z,10.20
2017-12-31T06:24:44.981Z,10.30
2017-12-31T06:27:13.306Z,10.40
2017-12-31T06:51:17.954Z,10.30
2017-12-31T06:53:45.478Z,10.30
2017-12-31T06:56:13.043Z,10.40
2017-12-31T06:58:41.373Z,10.40
2017-12-31T07:01:08.929Z,10.40
2017-12-31T07:03:36.465Z,10.40
2017-12-31T07:06:04.018Z,10.40
2017-12-31T07:08:32.446Z,10.40
2017-12-31T07:11:00.002Z,10.40
2017-12-31T07:13:27.571Z,10.40
2017-12-31T07:15:55.117Z,10.40
2017-12-31T07:18:22.654Z,10.40
2017-12-31T07:20:50.186Z,10.40
2017-12-31T07:23:18.518Z,10.40
2017-12-31T07:25:46.046Z,10.40
2017-12-31T07:28:13.625Z,10.40
2017-12-31T07:30:41.191Z,10.40
2017-12-31T07:33:08.759Z,10.40
2017-12-31T07:35:36.305Z,10.40
2017-12-31T07:38:03.870Z,10.50
2017-12-31T07:40:31.406Z,10.40
2017-12-31T07:42:58.962Z,10.50
2017-12-31T07:45:26.490Z,10.50
2017-12-31T07:47:54.051Z,10.50
2017-12-31T07:50:21.583Z,10.50
2017-12-31T07:52:49.137Z,10.50
2017-12-31T07:55:16.661Z,10.50
2017-12-31T07:57:44.218Z,10.50
2017-12-31T08:00:11.753Z,10.40
2017-12-31T08:02:40.119Z,10.50
2017-12-31T08:05:08.390Z,10.50
2017-12-31T08:07:35.949Z,10.50
2017-12-31T08:10:03.475Z,10.50
2017-12-31T08:12:31.042Z,10.50
2017-12-31T08:14:58.566Z,10.60
2017-12-31T08:17:26.122Z,10.60
2017-12-31T08:19:54.416Z,10.60
2017-12-31T08:22:21.946Z,10.60
2017-12-31T08:24:50.271Z,10.70
2017-12-31T08:30:11.614Z,10.70
2017-12-31T08:32:39.246Z,10.60
2017-12-31T08:35:06.807Z,10.60
2017-12-31T08:37:34.334Z,10.60
2017-12-31T08:40:02.663Z,10.60
2017-12-31T08:42:30.203Z,10.60
2017-12-31T08:44:57.749Z,10.70
2017-12-31T08:47:26.054Z,10.80
2017-12-31T08:49:53.616Z,10.80
2017-12-31T08:52:21.138Z,10.80
2017-12-31T08:54:49.470Z,10.80
2017-12-31T08:57:16.998Z,10.80
2017-12-31T08:59:44.549Z,10.80
2017-12-31T09:02:12.147Z,10.80
2017-12-31T09:04:39.701Z,10.80
2017-12-31T09:07:07.230Z,10.80
2017-12-31T09:09:34.785Z,10.90
2017-12-31T09:12:03.083Z,11.20
2017-12-31T09:14:30.634Z,11.20
2017-12-31T09:16:58.157Z,11.40
2017-12-31T09:19:25.713Z,11.50
2017-12-31T09:21:53.238Z,11.60
2017-12-31T09:24:20.789Z,11.60
2017-12-31T09:26:48.322Z,11.50
2017-12-31T09:29:15.865Z,11.60
2017-12-31T09:31:44.154Z,11.40
2017-12-31T09:34:12.474Z,11.40
2017-12-31T09:36:40.008Z,11.40
2017-12-31T09:39:07.534Z,11.50
2017-12-31T09:41:35.858Z,11.30
2017-12-31T09:44:03.389Z,11.20
2017-12-31T09:46:30.945Z,11.30
2017-12-31T09:48:59.246Z,11.20
2017-12-31T09:51:26.799Z,11.20
2017-12-31T09:53:54.321Z,11.20
2017-12-31T09:56:21.874Z,11.20
2017-12-31T09:58:49.402Z,11.20
2017-12-31T10:01:16.960Z,11.20
2017-12-31T10:03:44.486Z,11.30
2017-12-31T10:06:12.043Z,11.40
2017-12-31T10:08:39.579Z,11.40
2017-12-31T10:11:07.904Z,11.20
2017-12-31T10:13:35.421Z,11.20
2017-12-31T10:16:03.741Z,11.20
2017-12-31T10:18:31.277Z,11.20
2017-12-31T10:20:58.833Z,11.20
2017-12-31T10:23:26.361Z,11.20
2017-12-31T10:25:53.922Z,11.20
2017-12-31T10:28:21.459Z,11.20
2017-12-31T10:30:48.990Z,11.20
2017-12-31T10:33:16.544Z,11.30
2017-12-31T10:35:44.098Z,11.30
2017-12-31T10:38:11.654Z,11.40
2017-12-31T10:40:39.186Z,11.40
2017-12-31T10:43:06.746Z,11.40
2017-12-31T10:45:34.276Z,11.40
2017-12-31T10:48:01.834Z,11.40
2017-12-31T10:50:29.361Z,11.30
2017-12-31T10:52:56.905Z,11.40
2017-12-31T10:55:25.198Z,11.50
2017-12-31T10:57:52.749Z,11.50
2017-12-31T11:00:20.281Z,11.50
2017-12-31T11:05:45.212Z,11.40
2017-12-31T11:08:13.530Z,11.50
2017-12-31T11:10:41.059Z,11.50
2017-12-31T11:13:09.386Z,11.60
2017-12-31T11:15:36.912Z,11.60
2017-12-31T11:18:04.458Z,11.70
2017-12-31T11:20:32.745Z,11.70
2017-12-31T11:23:00.297Z,11.70
2017-12-31T11:25:27.910Z,11.70
2017-12-31T11:27:55.462Z,11.80
2017-12-31T11:30:22.998Z,11.90
2017-12-31T11:32:50.550Z,11.90
2017-12-31T11:35:18.095Z,12.10
2017-12-31T11:37:45.928Z,12.10
2017-12-31T11:40:13.458Z,12.20
2017-12-31T11:42:41.130Z,12.30
2017-12-31T11:45:08.665Z,12.30
2017-12-31T11:47:36.229Z,12.30
2017-12-31T11:50:03.762Z,12.40
2017-12-31T11:52:31.309Z,12.30
2017-12-31T11:54:59.596Z,12.30
2017-12-31T11:57:27.158Z,12.30
2017-12-31T11:59:54.708Z,12.30
2017-12-31T12:02:23.026Z,12.20
2017-12-31T12:04:50.549Z,12.20
2017-12-31T12:07:18.858Z,12.10
2017-12-31T12:09:46.378Z,12.10
2017-12-31T12:12:14.698Z,12.00
2017-12-31T12:14:42.225Z,12.00
2017-12-31T12:17:09.774Z,12.00
2017-12-31T12:19:38.070Z,11.80
2017-12-31T12:22:05.632Z,11.80
2017-12-31T12:24:33.153Z,11.80
2017-12-31T12:27:00.705Z,11.70
2017-12-31T12:29:28.229Z,11.70
2017-12-31T12:31:55.786Z,11.70
2017-12-31T12:34:23.315Z,11.70
2017-12-31T12:36:51.637Z,11.70
2017-12-31T12:39:19.211Z,11.70
2017-12-31T12:41:47.715Z,11.70
2017-12-31T12:44:15.294Z,11.70
2017-12-31T12:46:43.585Z,11.70
2017-12-31T12:49:11.138Z,11.70
2017-12-31T12:51:38.661Z,11.80
2017-12-31T12:54:06.216Z,11.90
2017-12-31T12:56:33.750Z,12.00
2017-12-31T12:59:01.306Z,12.00
2017-12-31T13:01:28.833Z,12.00
2017-12-31T13:03:57.150Z,12.00
2017-12-31T13:06:24.678Z,12.00
2017-12-31T13:08:52.229Z,11.90
2017-12-31T13:11:20.518Z,11.90
2017-12-31T13:13:48.070Z,11.80
2017-12-31T13:16:15.598Z,11.80
2017-12-31T13:18:43.151Z,11.80
2017-12-31T13:21:10.693Z,11.80
2017-12-31T13:23:38.256Z,11.80
2017-12-31T13:26:05.782Z,11.90
2017-12-31T13:28:33.332Z,11.80
2017-12-31T13:31:00.854Z,11.70
2017-12-31T13:33:28.410Z,11.80
2017-12-31T13:35:55.933Z,11.80
2017-12-31T13:38:23.478Z,11.90
2017-12-31T13:40:51.001Z,12.00
2017-12-31T13:43:18.545Z,11.90
2017-12-31T13:45:46.077Z,12.00
2017-12-31T13:48:13.634Z,12.00
2017-12-31T13:50:41.161Z,12.10
2017-12-31T13:53:08.709Z,12.20
2017-12-31T13:55:36.999Z,12.20
2017-12-31T13:58:04.570Z,12.20
2017-12-31T14:00:32.117Z,12.30
2017-12-31T14:02:59.676Z,12.20
2017-12-31T14:05:27.973Z,12.20
2017-12-31T14:07:55.525Z,12.20
2017-12-31T14:10:23.054Z,12.20
2017-12-31T14:12:51.380Z,12.00
2017-12-31T14:15:18.919Z,12.00
2017-12-31T14:17:46.479Z,11.90
2017-12-31T14:20:14.010Z,11.80
2017-12-31T14:22:42.331Z,11.90
2017-12-31T14:25:09.859Z,11.80
2017-12-31T14:27:38.174Z,11.90
2017-12-31T14:30:05.697Z,11.90
2017-12-31T14:32:34.014Z,11.90
2017-12-31T14:35:01.545Z,11.80
2017-12-31T14:37:29.091Z,11.90
2017-12-31T14:39:57.383Z,11.90
2017-12-31T14:42:24.912Z,11.90
2017-12-31T14:44:53.238Z,11.80
2017-12-31T14:47:20.766Z,11.80
2017-12-31T14:49:48.330Z,11.80
2017-12-31T14:52:16.621Z,11.60
2017-12-31T14:54:44.178Z,11.60
2017-12-31T14:57:11.705Z,11.60
2017-12-31T14:59:39.263Z,11.50
2017-12-31T15:02:06.786Z,11.40
2017-12-31T15:04:34.344Z,11.30
2017-12-31T15:07:01.874Z,11.30
2017-12-31T15:09:29.426Z,11.30
2017-12-31T15:11:57.719Z,11.30
2017-12-31T15:14:25.276Z,11.20
2017-12-31T15:16:52.802Z,11.20
2017-12-31T15:19:21.125Z,11.10
2017-12-31T15:21:48.659Z,11.10
2017-12-31T15:24:16.218Z,11.10
2017-12-31T15:26:44.521Z,11.10
2017-12-31T15:29:12.074Z,11.00
2017-12-31T15:31:39.602Z,11.00
2017-12-31T15:34:07.926Z,10.90
2017-12-31T15:36:35.463Z,10.90
2017-12-31T15:39:03.014Z,10.90
2017-12-31T15:41:30.546Z,10.80
2017-12-31T15:43:58.093Z,10.80
2017-12-31T15:46:25.623Z,10.80
2017-12-31T15:48:53.182Z,10.70
2017-12-31T15:51:20.731Z,10.60
2017-12-31T15:53:48.286Z,10.60
2017-12-31T15:56:15.818Z,10.50
2017-12-31T15:58:44.158Z,10.50
2017-12-31T16:01:11.692Z,10.40
2017-12-31T16:03:39.246Z,10.50
2017-12-31T16:06:06.795Z,10.40
2017-12-31T16:08:34.378Z,10.40
2017-12-31T16:11:01.919Z,10.40
2017-12-31T16:13:29.530Z,10.40
2017-12-31T16:15:57.066Z,10.30
2017-12-31T16:18:24.620Z,10.20
2017-12-31T16:20:52.148Z,10.20
2017-12-31T16:23:19.701Z,10.10
2017-12-31T16:25:47.234Z,10.20
2017-12-31T16:28:14.781Z,10.10
2017-12-31T16:30:43.073Z,10.20
2017-12-31T16:33:10.632Z,10.20
2017-12-31T16:35:38.162Z,10.20
2017-12-31T16:38:06.482Z,10.00
2017-12-31T16:40:34.789Z,10.10
2017-12-31T16:43:02.346Z,10.00
2017-12-31T16:45:29.892Z,10.10
2017-12-31T16:47:58.186Z,10.00
2017-12-31T16:50:25.743Z,10.00
2017-12-31T16:52:53.278Z,10.10
2017-12-31T16:55:21.614Z,10.10
2017-12-31T16:57:49.142Z,10.10
2017-12-31T17:00:16.698Z,10.10
2017-12-31T17:02:44.226Z,10.10
2017-12-31T17:05:11.784Z,10.10
2017-12-31T17:07:40.090Z,10.10
2017-12-31T17:10:07.641Z,10.00
2017-12-31T17:12:35.938Z,10.10
2017-12-31T17:15:03.494Z,10.10
2017-12-31T17:17:31.023Z,10.10
2017-12-31T17:19:59.351Z,10.00
2017-12-31T17:22:26.882Z,10.00
2017-12-31T17:24:54.438Z,10.00
2017-12-31T17:27:21.970Z,9.90
2017-12-31T17:29:49.523Z,9.90
2017-12-31T17:32:17.047Z,9.90
2017-12-31T17:34:44.589Z,9.90
2017-12-31T17:37:12.123Z,9.90
2017-12-31T17:39:40.443Z,9.80
2017-12-31T17:42:07.986Z,9.80
2017-12-31T17:44:35.546Z,9.80
2017-12-31T17:47:03.073Z,9.80
2017-12-31T17:49:31.389Z,9.70
2017-12-31T17:51:58.909Z,9.70
2017-12-31T17:54:27.238Z,9.70
2017-12-31T17:56:54.770Z,9.60
2017-12-31T17:59:22.326Z,9.70
2017-12-31T18:01:49.858Z,9.70
2017-12-31T18:04:18.919Z,9.70
2017-12-31T18:06:46.449Z,9.70
2017-12-31T18:09:14.001Z,9.80
2017-12-31T18:11:41.539Z,9.70
2017-12-31T18:14:09.849Z,9.50
2017-12-31T18:16:37.374Z,9.50
2017-12-31T18:19:04.963Z,9.40
2017-12-31T18:21:32.485Z,9.40
2017-12-31T18:24:00.040Z,9.30
2017-12-31T18:26:27.563Z,9.40
2017-12-31T18:28:55.114Z,9.40
2017-12-31T18:31:22.653Z,9.50
2017-12-31T18:33:50.202Z,9.50
2017-12-31T18:36:18.509Z,9.50
2017-12-31T18:38:46.057Z,9.40
2017-12-31T18:41:13.586Z,9.60
2017-12-31T18:43:41.906Z,9.70
2017-12-31T18:46:09.442Z,9.60
2017-12-31T18:48:37.754Z,9.70
2017-12-31T18:51:06.054Z,9.80
2017-12-31T18:53:33.585Z,9.80
2017-12-31T18:56:01.129Z,9.90
2017-12-31T18:58:28.653Z,9.90
2017-12-31T19:00:56.215Z,10.00
2017-12-31T19:03:24.513Z,10.00
2017-12-31T19:05:52.827Z,9.90
2017-12-31T19:08:20.349Z,9.90
2017-12-31T19:10:48.665Z,9.80
2017-12-31T19:13:16.957Z,9.80
2017-12-31T19:15:44.510Z,9.70
2017-12-31T19:18:12.035Z,9.70
2017-12-31T19:20:39.602Z,9.70
2017-12-31T19:23:07.133Z,9.70
2017-12-31T19:25:35.463Z,9.60
2017-12-31T19:28:02.990Z,9.60
2017-12-31T19:30:30.545Z,9.70
2017-12-31T19:32:58.070Z,9.70
2017-12-31T19:35:25.613Z,9.70
2017-12-31T19:37:53.147Z,9.70
2017-12-31T19:40:20.700Z,9.70
2017-12-31T19:42:48.230Z,9.70
2017-12-31T19:45:16.562Z,9.80
2017-12-31T19:47:44.100Z,9.80
2017-12-31T19:50:11.638Z,9.80
2017-12-31T19:52:39.166Z,9.80
2017-12-31T19:55:08.046Z,9.90
2017-12-31T19:57:35.574Z,9.80
2017-12-31T20:00:03.134Z,9.80
2017-12-31T20:02:30.661Z,9.80
2017-12-31T20:04:58.986Z,10.00
2017-12-31T20:07:26.509Z,9.90
2017-12-31T20:09:54.059Z,10.00
2017-12-31T20:12:22.355Z,10.20
2017-12-31T20:14:49.900Z,10.10
2017-12-31T20:17:17.429Z,10.20
2017-12-31T20:19:44.987Z,10.20
2017-12-31T20:22:12.514Z,10.20
2017-12-31T20:24:40.073Z,10.20
2017-12-31T20:27:07.598Z,10.20
2017-12-31T20:29:35.153Z,10.20
2017-12-31T20:32:02.690Z,10.30
2017-12-31T20:34:30.246Z,10.20
2017-12-31T20:36:57.778Z,10.20
2017-12-31T20:39:25.337Z,10.20
2017-12-31T20:41:52.868Z,10.20
2017-12-31T20:44:20.423Z,10.20
2017-12-31T20:46:47.965Z,10.20
2017-12-31T20:49:15.558Z,10.30
2017-12-31T20:51:43.094Z,10.30
2017-12-31T20:54:10.622Z,10.30
2017-12-31T20:56:38.174Z,10.30
2017-12-31T20:59:05.699Z,10.10
2017-12-31T21:01:33.246Z,9.90
2017-12-31T21:04:00.773Z,9.50
2017-12-31T21:06:29.077Z,9.20
2017-12-31T21:08:56.602Z,9.20
2017-12-31T21:11:24.147Z,9.10
2017-12-31T21:13:51.666Z,9.10
2017-12-31T21:16:19.205Z,9.10
2017-12-31T21:18:46.773Z,9.10
2017-12-31T21:21:14.314Z,9.10
2017-12-31T21:23:42.605Z,9.10
2017-12-31T21:26:10.149Z,9.10
2017-12-31T21:28:38.435Z,9.20
2017-12-31T21:31:05.977Z,9.10
2017-12-31T21:33:34.272Z,9.10
2017-12-31T21:36:01.818Z,9.10
2017-12-31T21:38:30.110Z,9.10
2017-12-31T21:40:57.655Z,9.00
2017-12-31T21:43:25.946Z,9.20
2017-12-31T21:45:54.262Z,9.20
2017-12-31T21:48:21.782Z,9.20
2017-12-31T21:50:50.090Z,9.10
2017-12-31T21:53:17.615Z,9.10
2017-12-31T21:55:45.926Z,9.10
2017-12-31T21:58:13.453Z,9.00
2017-12-31T22:00:41.766Z,9.00
2017-12-31T22:03:09.298Z,9.00
2017-12-31T22:05:36.842Z,9.10
2017-12-31T22:08:05.182Z,9.00
2017-12-31T22:10:32.738Z,9.00
2017-12-31T22:13:00.282Z,9.10
2017-12-31T22:15:27.846Z,9.00
2017-12-31T22:17:55.366Z,9.00
2017-12-31T22:20:23.675Z,9.00
2017-12-31T22:22:51.202Z,9.00
2017-12-31T22:25:19.516Z,8.90
2017-12-31T22:27:47.038Z,8.90
2017-12-31T22:30:14.586Z,8.90
2017-12-31T22:32:42.873Z,8.90
2017-12-31T22:35:11.186Z,8.90
2017-12-31T22:37:38.749Z,8.90
2017-12-31T22:40:06.278Z,8.90
2017-12-31T22:42:33.813Z,8.90
2017-12-31T22:45:02.137Z,8.80
2017-12-31T22:47:29.666Z,8.80
2017-12-31T22:49:57.219Z,8.80
2017-12-31T22:52:25.506Z,8.70
2017-12-31T22:54:53.061Z,8.70
2017-12-31T22:57:21.370Z,8.80
2017-12-31T22:59:48.935Z,8.80
2017-12-31T23:02:16.461Z,8.80
2017-12-31T23:04:44.022Z,8.80
2017-12-31T23:07:12.322Z,8.80
2017-12-31T23:09:39.862Z,8.80
2017-12-31T23:12:07.409Z,8.80
2017-12-31T23:14:35.711Z,8.70
2017-12-31T23:17:03.282Z,8.70
2017-12-31T23:19:30.815Z,8.80
2017-12-31T23:21:59.133Z,8.80
2017-12-31T23:24:26.679Z,8.80
2017-12-31T23:26:54.238Z,8.80
2017-12-31T23:29:21.761Z,8.70
2017-12-31T23:31:50.075Z,8.80
2017-12-31T23:34:17.619Z,8.80
2017-12-31T23:36:45.167Z,8.80
2017-12-31T23:39:13.462Z,8.80
2017-12-31T23:41:41.009Z,8.70
2017-12-31T23:44:08.552Z,8.80
2017-12-31T23:46:36.875Z,8.80
2017-12-31T23:49:04.407Z,8.80
2017-12-31T23:51:31.954Z,8.70
2017-12-31T23:54:00.250Z,8.70
2017-12-31T23:56:27.806Z,8.70
2017-12-31T23:58:55.340Z,8.60
